createdAt,value
2023-10-05T00:03:44.804Z,85.30
2023-10-05T00:09:26.967Z,85.70
2023-10-05T00:15:08.303Z,85.70
2023-10-05T00:20:48.640Z,85.90
2023-10-05T00:26:31.618Z,86.00
2023-10-05T00:32:13.424Z,86.10
2023-10-05T00:37:55.659Z,86.10
2023-10-05T00:43:37.493Z,86.10
2023-10-05T00:49:18.479Z,86.30
2023-10-05T00:54:59.752Z,86.60
2023-10-05T01:00:41.471Z,86.60
2023-10-05T01:06:22.424Z,86.60
2023-10-05T01:12:02.496Z,86.60
2023-10-05T01:17:44.418Z,86.70
2023-10-05T01:23:31.180Z,86.90
2023-10-05T01:29:11.495Z,87.20
2023-10-05T01:34:51.877Z,87.10
2023-10-05T01:40:33.751Z,87.00
2023-10-05T01:46:14.239Z,87.30
2023-10-05T01:51:54.388Z,87.30
2023-10-05T01:57:35.924Z,87.20
2023-10-05T02:03:16.153Z,87.50
2023-10-05T02:08:56.499Z,87.60
2023-10-05T02:14:38.300Z,87.60
2023-10-05T02:20:18.878Z,87.80
2023-10-05T02:26:00.356Z,87.80
2023-10-05T02:31:42.183Z,87.90
2023-10-05T02:37:22.527Z,88.10
2023-10-05T02:43:03.264Z,87.90
2023-10-05T02:48:44.843Z,88.00
2023-10-05T02:54:26.569Z,88.20
2023-10-05T03:00:08.013Z,88.30
2023-10-05T03:05:49.635Z,88.40
2023-10-05T03:11:36.390Z,88.50
2023-10-05T03:17:16.740Z,88.70
2023-10-05T03:22:58.398Z,88.60
2023-10-05T03:28:38.980Z,88.70
2023-10-05T03:34:20.511Z,88.70
2023-10-05T03:40:02.313Z,88.70
2023-10-05T03:45:42.550Z,88.90
2023-10-05T03:51:22.587Z,88.90
2023-10-05T03:57:04.291Z,88.90
2023-10-05T04:02:44.843Z,89.40
2023-10-05T04:08:25.120Z,89.50
2023-10-05T04:14:06.554Z,89.70
2023-10-05T04:19:46.568Z,89.90
2023-10-05T04:25:26.599Z,89.70
2023-10-05T04:31:08.615Z,89.50
2023-10-05T04:36:49.430Z,89.50
2023-10-05T04:42:29.834Z,89.30
2023-10-05T04:48:11.608Z,89.40
2023-10-05T04:53:51.897Z,89.40
2023-10-05T04:59:32.196Z,89.40
2023-10-05T05:05:14.434Z,89.40
2023-10-05T05:10:54.969Z,89.80
2023-10-05T05:16:36.150Z,90.00
2023-10-05T05:22:18.152Z,90.10
2023-10-05T05:27:58.568Z,90.20
2023-10-05T05:33:38.696Z,90.20
2023-10-05T05:39:20.691Z,90.20
2023-10-05T05:45:00.775Z,90.20
2023-10-05T05:50:41.248Z,90.20
2023-10-05T05:56:22.980Z,90.20
2023-10-05T06:02:03.925Z,90.30
2023-10-05T06:07:45.110Z,90.30
2023-10-05T06:13:26.852Z,90.30
2023-10-05T06:19:07.604Z,90.30
2023-10-05T06:24:48.641Z,90.30
2023-10-05T06:30:30.445Z,90.50
2023-10-05T06:36:10.898Z,90.50
2023-10-05T06:41:50.946Z,90.50
2023-10-05T06:47:32.787Z,90.50
2023-10-05T06:53:13.257Z,90.60
2023-10-05T06:58:53.698Z,90.60
2023-10-05T07:04:35.841Z,90.60
2023-10-05T07:10:17.501Z,90.70
2023-10-05T07:15:58.259Z,90.70
2023-10-05T07:21:40.298Z,90.70
2023-10-05T07:27:20.902Z,91.10
2023-10-05T07:33:14.851Z,90.70
2023-10-05T07:38:57.721Z,90.80
2023-10-05T07:44:38.656Z,90.80
2023-10-05T07:50:19.330Z,90.80
2023-10-05T07:56:01.022Z,90.80
2023-10-05T08:01:41.818Z,91.20
2023-10-05T08:07:22.140Z,90.80
2023-10-05T08:13:03.959Z,90.80
2023-10-05T08:18:44.679Z,90.90
2023-10-05T08:24:26.030Z,90.90
2023-10-05T08:30:09.218Z,90.90
2023-10-05T08:35:49.758Z,91.00
2023-10-05T08:41:31.918Z,90.90
2023-10-05T08:47:14.396Z,90.90
2023-10-05T08:52:54.997Z,90.90
2023-10-05T08:58:35.261Z,91.00
2023-10-05T09:04:17.512Z,91.10
2023-10-05T09:09:57.816Z,91.20
2023-10-05T09:15:50.384Z,91.30
2023-10-05T09:21:50.461Z,91.60
2023-10-05T09:27:41.303Z,91.60
2023-10-05T09:33:22.689Z,91.40
2023-10-05T09:39:05.009Z,91.00
2023-10-05T09:44:50.058Z,90.90
2023-10-05T09:50:31.738Z,90.70
2023-10-05T09:56:13.406Z,90.60
2023-10-05T10:01:54.227Z,90.60
2023-10-05T10:07:35.544Z,90.70
2023-10-05T10:13:17.711Z,90.80
2023-10-05T10:19:00.730Z,90.60
2023-10-05T10:24:40.966Z,90.20
2023-10-05T10:30:22.615Z,90.00
2023-10-05T10:36:03.069Z,89.40
2023-10-05T10:41:55.883Z,89.10
2023-10-05T10:47:46.376Z,88.20
2023-10-05T10:53:28.235Z,88.00
2023-10-05T10:59:10.584Z,87.80
2023-10-05T11:05:00.599Z,87.50
2023-10-05T11:10:42.088Z,86.10
2023-10-05T11:16:22.851Z,85.80
2023-10-05T11:22:05.241Z,85.20
2023-10-05T11:27:47.586Z,84.70
2023-10-05T11:34:20.574Z,84.30
2023-10-05T11:39:37.262Z,83.30
2023-10-05T11:45:18.249Z,82.80
2023-10-05T11:50:59.322Z,82.80
2023-10-05T11:56:41.148Z,83.70
2023-10-05T12:02:22.105Z,84.30
2023-10-05T12:08:02.861Z,82.80
2023-10-05T12:13:44.699Z,81.50
2023-10-05T12:19:25.326Z,80.60
2023-10-05T12:25:07.017Z,80.70
2023-10-05T12:30:49.071Z,80.20
2023-10-05T12:36:29.480Z,79.50
2023-10-05T12:42:09.497Z,79.40
2023-10-05T12:47:51.744Z,79.40
2023-10-05T12:53:32.295Z,79.60
2023-10-05T12:59:12.764Z,80.20
2023-10-05T13:05:02.424Z,80.10
2023-10-05T13:10:53.155Z,80.30
2023-10-05T13:16:33.530Z,81.10
2023-10-05T13:22:15.194Z,80.80
2023-10-05T13:27:55.450Z,80.40
2023-10-05T13:33:36.177Z,80.40
2023-10-05T13:39:17.984Z,80.30
2023-10-05T13:44:57.982Z,80.30
2023-10-05T13:50:38.392Z,80.50
2023-10-05T13:56:19.966Z,80.60
2023-10-05T14:02:00.564Z,80.80
2023-10-05T14:07:40.921Z,81.30
2023-10-05T14:13:22.754Z,81.30
2023-10-05T14:19:03.520Z,81.30
2023-10-05T14:24:43.771Z,81.40
2023-10-05T14:30:25.764Z,81.40
2023-10-05T14:36:10.441Z,81.50
2023-10-05T14:41:52.243Z,81.10
2023-10-05T14:47:33.991Z,81.20
2023-10-05T14:53:14.482Z,80.80
2023-10-05T14:58:54.790Z,80.80
2023-10-05T15:04:36.309Z,81.00
2023-10-05T15:10:17.050Z,80.60
2023-10-05T15:15:57.320Z,80.70
2023-10-05T15:21:39.111Z,80.70
2023-10-05T15:27:19.589Z,80.50
2023-10-05T15:33:00.263Z,80.50
2023-10-05T15:38:42.243Z,80.80
2023-10-05T15:44:22.629Z,81.10
2023-10-05T15:50:03.113Z,81.10
2023-10-05T15:55:44.974Z,81.00
2023-10-05T16:01:25.424Z,80.90
2023-10-05T16:07:06.619Z,81.00
2023-10-05T16:12:50.672Z,80.90
2023-10-05T16:18:32.209Z,80.90
2023-10-05T16:24:12.092Z,81.10
2023-10-05T16:29:57.652Z,81.40
2023-10-05T16:35:38.266Z,81.60
2023-10-05T16:41:18.591Z,81.70
2023-10-05T16:47:04.132Z,81.70
2023-10-05T16:52:46.741Z,82.20
2023-10-05T16:58:27.460Z,82.60
2023-10-05T17:04:09.500Z,83.10
2023-10-05T17:09:49.928Z,83.60
2023-10-05T17:15:30.258Z,83.70
2023-10-05T17:21:12.215Z,84.00
2023-10-05T17:26:52.194Z,84.30
2023-10-05T17:32:32.329Z,84.50
2023-10-05T17:38:13.834Z,84.70
2023-10-05T17:43:54.051Z,85.30
2023-10-05T17:49:34.237Z,85.50
2023-10-05T17:55:16.183Z,85.80
2023-10-05T18:00:56.867Z,86.30
2023-10-05T18:06:36.922Z,86.40
2023-10-05T18:12:24.088Z,86.40
2023-10-05T18:18:05.550Z,86.80
2023-10-05T18:23:46.477Z,86.70
2023-10-05T18:29:28.617Z,86.90
2023-10-05T18:35:09.726Z,87.20
2023-10-05T18:40:50.442Z,87.20
2023-10-05T18:46:32.536Z,87.30
2023-10-05T18:52:13.256Z,87.50
2023-10-05T18:57:53.704Z,87.70
2023-10-05T19:03:38.677Z,87.90
2023-10-05T19:09:19.407Z,89.10
2023-10-05T19:15:01.148Z,88.30
2023-10-05T19:20:43.349Z,88.30
2023-10-05T19:26:23.643Z,88.50
2023-10-05T19:32:03.849Z,88.30
2023-10-05T19:37:45.774Z,88.40
2023-10-05T19:50:27.140Z,90.00
2023-10-05T19:56:10.015Z,88.80
2023-10-05T20:01:51.928Z,89.20
2023-10-05T20:07:32.823Z,89.30
2023-10-05T20:13:14.834Z,89.30
2023-10-05T20:18:55.108Z,89.30
2023-10-05T20:24:35.535Z,89.30
2023-10-05T20:30:17.319Z,89.20
2023-10-05T20:36:01.008Z,89.30
2023-10-05T20:41:42.659Z,89.40
2023-10-05T20:47:24.654Z,89.20
2023-10-05T20:53:05.528Z,89.20
2023-10-05T20:58:45.893Z,89.10
2023-10-05T21:04:28.127Z,89.10
2023-10-05T21:10:09.080Z,89.30
2023-10-05T21:15:49.670Z,89.20
2023-10-05T21:21:31.574Z,89.30
2023-10-05T21:27:12.206Z,89.30
2023-10-05T21:32:52.698Z,89.20
2023-10-05T21:38:34.137Z,89.20
2023-10-05T21:44:14.382Z,89.30
2023-10-05T21:49:54.851Z,89.30
2023-10-05T21:55:36.718Z,89.20
2023-10-05T22:01:22.529Z,89.30
2023-10-05T22:07:03.261Z,89.60
2023-10-05T22:12:45.173Z,89.40
2023-10-05T22:18:26.090Z,89.70
2023-10-05T22:24:07.329Z,89.80
2023-10-05T22:29:49.268Z,89.90
2023-10-05T22:35:29.613Z,89.80
2023-10-05T22:41:10.615Z,89.70
2023-10-05T22:46:52.723Z,89.70
2023-10-05T22:52:33.408Z,89.70
2023-10-05T22:58:13.507Z,89.60
2023-10-05T23:03:55.500Z,89.60
2023-10-05T23:09:36.228Z,89.80
2023-10-05T23:15:16.688Z,89.80
2023-10-05T23:20:58.524Z,89.80
2023-10-05T23:26:39.348Z,89.90
2023-10-05T23:32:19.375Z,89.90
2023-10-05T23:38:00.818Z,90.00
2023-10-05T23:43:41.527Z,90.00
2023-10-05T23:49:21.807Z,90.00
2023-10-05T23:55:03.371Z,90.00
